sensor_id;sensor_type;location;lat;lon;timestamp;temperature;humidity
43185;DHT22;28803;52.308;19.096;2023-11-21T00:00:04;1.30;99.90
43185;DHT22;28803;52.308;19.096;2023-11-21T00:02:57;1.30;99.90
43185;DHT22;28803;52.308;19.096;2023-11-21T00:05:24;1.20;99.90
43185;DHT22;28803;52.308;19.096;2023-11-21T00:07:52;1.30;99.90
43185;DHT22;28803;52.308;19.096;2023-11-21T00:10:19;1.30;99.90
43185;DHT22;28803;52.308;19.096;2023-11-21T00:12:46;1.30;99.90
43185;DHT22;28803;52.308;19.096;2023-11-21T00:15:15;1.20;99.90
43185;DHT22;28803;52.308;19.096;2023-11-21T00:17:42;1.20;99.90
43185;DHT22;28803;52.308;19.096;2023-11-21T00:20:10;1.20;99.90
43185;DHT22;28803;52.308;19.096;2023-11-21T00:22:41;1.20;99.90
43185;DHT22;28803;52.308;19.096;2023-11-21T00:25:09;1.20;99.90
43185;DHT22;28803;52.308;19.096;2023-11-21T00:27:37;1.20;99.90
43185;DHT22;28803;52.308;19.096;2023-11-21T00:30:05;1.30;99.90
43185;DHT22;28803;52.308;19.096;2023-11-21T00:32:36;1.30;99.90
43185;DHT22;28803;52.308;19.096;2023-11-21T00:35:04;1.30;99.90
43185;DHT22;28803;52.308;19.096;2023-11-21T00:37:32;1.30;99.90
43185;DHT22;28803;52.308;19.096;2023-11-21T00:40:01;1.20;99.90
43185;DHT22;28803;52.308;19.096;2023-11-21T00:42:32;1.20;99.90
43185;DHT22;28803;52.308;19.096;2023-11-21T00:45:01;1.10;99.90
43185;DHT22;28803;52.308;19.096;2023-11-21T00:47:28;1.10;99.90
43185;DHT22;28803;52.308;19.096;2023-11-21T00:49:56;1.10;99.90
43185;DHT22;28803;52.308;19.096;2023-11-21T00:52:23;1.20;99.90
43185;DHT22;28803;52.308;19.096;2023-11-21T00:54:51;1.10;99.90
43185;DHT22;28803;52.308;19.096;2023-11-21T00:57:18;1.20;99.90
43185;DHT22;28803;52.308;19.096;2023-11-21T00:59:46;1.10;99.90
43185;DHT22;28803;52.308;19.096;2023-11-21T01:02:13;1.20;99.90
43185;DHT22;28803;52.308;19.096;2023-11-21T01:04:41;1.10;99.90
43185;DHT22;28803;52.308;19.096;2023-11-21T01:07:08;1.10;99.90
43185;DHT22;28803;52.308;19.096;2023-11-21T01:09:36;1.00;99.90
43185;DHT22;28803;52.308;19.096;2023-11-21T01:12:03;1.00;99.90
43185;DHT22;28803;52.308;19.096;2023-11-21T01:14:31;1.00;99.90
43185;DHT22;28803;52.308;19.096;2023-11-21T01:16:58;1.00;99.90
43185;DHT22;28803;52.308;19.096;2023-11-21T01:19:26;1.10;99.90
43185;DHT22;28803;52.308;19.096;2023-11-21T01:21:53;1.10;99.90
43185;DHT22;28803;52.308;19.096;2023-11-21T01:24:21;1.10;99.90
43185;DHT22;28803;52.308;19.096;2023-11-21T01:26:48;1.10;99.90
43185;DHT22;28803;52.308;19.096;2023-11-21T01:29:16;1.10;99.90
43185;DHT22;28803;52.308;19.096;2023-11-21T01:31:43;1.00;99.90
43185;DHT22;28803;52.308;19.096;2023-11-21T01:34:11;1.00;99.90
43185;DHT22;28803;52.308;19.096;2023-11-21T01:36:38;1.00;99.90
43185;DHT22;28803;52.308;19.096;2023-11-21T01:39:05;0.90;99.90
43185;DHT22;28803;52.308;19.096;2023-11-21T01:41:35;0.90;99.90
43185;DHT22;28803;52.308;19.096;2023-11-21T01:44:04;0.90;99.90
43185;DHT22;28803;52.308;19.096;2023-11-21T01:46:35;0.90;99.90
43185;DHT22;28803;52.308;19.096;2023-11-21T01:49:03;1.00;99.90
43185;DHT22;28803;52.308;19.096;2023-11-21T01:51:30;1.00;99.90
43185;DHT22;28803;52.308;19.096;2023-11-21T01:53:58;1.00;99.90
43185;DHT22;28803;52.308;19.096;2023-11-21T01:56:26;1.00;99.90
43185;DHT22;28803;52.308;19.096;2023-11-21T01:58:54;1.00;99.90
43185;DHT22;28803;52.308;19.096;2023-11-21T02:01:21;1.00;99.90
43185;DHT22;28803;52.308;19.096;2023-11-21T02:03:49;0.90;99.90
43185;DHT22;28803;52.308;19.096;2023-11-21T02:06:16;0.90;99.90
43185;DHT22;28803;52.308;19.096;2023-11-21T02:08:45;0.90;99.90
43185;DHT22;28803;52.308;19.096;2023-11-21T02:11:12;0.80;99.90
43185;DHT22;28803;52.308;19.096;2023-11-21T02:13:40;0.80;99.90
43185;DHT22;28803;52.308;19.096;2023-11-21T02:16:12;0.80;99.90
43185;DHT22;28803;52.308;19.096;2023-11-21T02:18:40;0.80;99.90
43185;DHT22;28803;52.308;19.096;2023-11-21T02:21:09;0.80;99.90
43185;DHT22;28803;52.308;19.096;2023-11-21T02:23:37;0.80;99.90
43185;DHT22;28803;52.308;19.096;2023-11-21T02:26:09;0.80;99.90
43185;DHT22;28803;52.308;19.096;2023-11-21T02:28:37;0.80;99.90
43185;DHT22;28803;52.308;19.096;2023-11-21T02:31:05;0.80;99.90
43185;DHT22;28803;52.308;19.096;2023-11-21T02:33:35;0.80;99.90
43185;DHT22;28803;52.308;19.096;2023-11-21T02:36:02;0.80;99.90
43185;DHT22;28803;52.308;19.096;2023-11-21T02:38:30;0.80;99.90
43185;DHT22;28803;52.308;19.096;2023-11-21T02:40:58;0.70;99.90
43185;DHT22;28803;52.308;19.096;2023-11-21T02:43:26;0.70;99.90
43185;DHT22;28803;52.308;19.096;2023-11-21T02:45:53;0.70;99.90
43185;DHT22;28803;52.308;19.096;2023-11-21T02:50:50;0.60;99.90
43185;DHT22;28803;52.308;19.096;2023-11-21T02:53:20;0.60;99.90
43185;DHT22;28803;52.308;19.096;2023-11-21T02:55:48;0.60;99.90
43185;DHT22;28803;52.308;19.096;2023-11-21T02:58:16;0.60;99.90
43185;DHT22;28803;52.308;19.096;2023-11-21T03:00:43;0.60;99.90
43185;DHT22;28803;52.308;19.096;2023-11-21T03:03:10;0.60;99.90
43185;DHT22;28803;52.308;19.096;2023-11-21T03:05:38;0.60;99.90
43185;DHT22;28803;52.308;19.096;2023-11-21T03:08:05;0.50;99.90
43185;DHT22;28803;52.308;19.096;2023-11-21T03:10:32;0.40;99.90
43185;DHT22;28803;52.308;19.096;2023-11-21T03:13:00;0.50;99.90
43185;DHT22;28803;52.308;19.096;2023-11-21T03:15:27;0.50;99.90
43185;DHT22;28803;52.308;19.096;2023-11-21T03:17:55;0.40;99.90
43185;DHT22;28803;52.308;19.096;2023-11-21T03:20:22;0.40;99.90
43185;DHT22;28803;52.308;19.096;2023-11-21T03:22:50;0.40;99.90
43185;DHT22;28803;52.308;19.096;2023-11-21T03:25:18;0.40;99.90
43185;DHT22;28803;52.308;19.096;2023-11-21T03:27:46;0.40;99.90
43185;DHT22;28803;52.308;19.096;2023-11-21T03:30:13;0.40;99.90
43185;DHT22;28803;52.308;19.096;2023-11-21T03:32:41;0.40;99.90
43185;DHT22;28803;52.308;19.096;2023-11-21T03:35:08;0.30;99.90
43185;DHT22;28803;52.308;19.096;2023-11-21T03:37:38;0.30;99.90
43185;DHT22;28803;52.308;19.096;2023-11-21T03:40:08;0.40;99.90
43185;DHT22;28803;52.308;19.096;2023-11-21T03:42:36;0.30;99.90
43185;DHT22;28803;52.308;19.096;2023-11-21T03:45:05;0.30;99.90
43185;DHT22;28803;52.308;19.096;2023-11-21T03:47:33;0.20;99.90
43185;DHT22;28803;52.308;19.096;2023-11-21T03:50:01;0.20;99.90
43185;DHT22;28803;52.308;19.096;2023-11-21T03:52:29;0.20;99.90
43185;DHT22;28803;52.308;19.096;2023-11-21T03:54:56;0.20;99.90
43185;DHT22;28803;52.308;19.096;2023-11-21T03:57:24;0.20;99.90
43185;DHT22;28803;52.308;19.096;2023-11-21T03:59:51;0.20;99.90
43185;DHT22;28803;52.308;19.096;2023-11-21T04:02:18;0.20;99.90
43185;DHT22;28803;52.308;19.096;2023-11-21T04:04:46;0.20;99.90
43185;DHT22;28803;52.308;19.096;2023-11-21T04:07:13;0.10;99.90
43185;DHT22;28803;52.308;19.096;2023-11-21T04:09:40;0.10;99.90
43185;DHT22;28803;52.308;19.096;2023-11-21T04:12:08;0.10;99.90
43185;DHT22;28803;52.308;19.096;2023-11-21T04:14:38;0.20;99.90
43185;DHT22;28803;52.308;19.096;2023-11-21T04:17:06;0.10;99.90
43185;DHT22;28803;52.308;19.096;2023-11-21T04:19:33;0.10;99.90
43185;DHT22;28803;52.308;19.096;2023-11-21T04:22:01;0.10;99.90
43185;DHT22;28803;52.308;19.096;2023-11-21T04:24:28;0.10;99.90
43185;DHT22;28803;52.308;19.096;2023-11-21T04:26:55;0.10;99.90
43185;DHT22;28803;52.308;19.096;2023-11-21T04:29:23;0.10;99.90
43185;DHT22;28803;52.308;19.096;2023-11-21T04:31:50;0.10;99.90
43185;DHT22;28803;52.308;19.096;2023-11-21T04:34:17;0.00;99.90
43185;DHT22;28803;52.308;19.096;2023-11-21T04:36:46;0.00;99.90
43185;DHT22;28803;52.308;19.096;2023-11-21T04:39:13;0.00;99.90
43185;DHT22;28803;52.308;19.096;2023-11-21T04:41:40;0.00;99.90
43185;DHT22;28803;52.308;19.096;2023-11-21T04:44:08;0.00;99.90
43185;DHT22;28803;52.308;19.096;2023-11-21T04:46:35;0.00;99.90
43185;DHT22;28803;52.308;19.096;2023-11-21T04:49:03;-0.10;99.90
43185;DHT22;28803;52.308;19.096;2023-11-21T04:51:30;-0.10;99.90
43185;DHT22;28803;52.308;19.096;2023-11-21T04:53:59;-0.10;99.90
43185;DHT22;28803;52.308;19.096;2023-11-21T04:56:27;-0.10;99.90
43185;DHT22;28803;52.308;19.096;2023-11-21T04:58:54;-0.20;99.90
43185;DHT22;28803;52.308;19.096;2023-11-21T05:01:22;-0.10;99.90
43185;DHT22;28803;52.308;19.096;2023-11-21T05:03:49;-0.20;99.90
43185;DHT22;28803;52.308;19.096;2023-11-21T05:06:17;-0.10;99.90
43185;DHT22;28803;52.308;19.096;2023-11-21T05:08:44;-0.10;99.90
43185;DHT22;28803;52.308;19.096;2023-11-21T05:11:12;-0.10;99.90
43185;DHT22;28803;52.308;19.096;2023-11-21T05:13:39;-0.10;99.90
43185;DHT22;28803;52.308;19.096;2023-11-21T05:16:07;-0.10;99.90
43185;DHT22;28803;52.308;19.096;2023-11-21T05:18:35;-0.10;99.90
43185;DHT22;28803;52.308;19.096;2023-11-21T05:21:02;-0.10;99.90
43185;DHT22;28803;52.308;19.096;2023-11-21T05:23:29;-0.10;99.90
43185;DHT22;28803;52.308;19.096;2023-11-21T05:25:57;-0.10;99.90
43185;DHT22;28803;52.308;19.096;2023-11-21T05:28:24;-0.20;99.90
43185;DHT22;28803;52.308;19.096;2023-11-21T05:30:52;-0.20;99.90
43185;DHT22;28803;52.308;19.096;2023-11-21T05:33:40;-0.20;99.90
43185;DHT22;28803;52.308;19.096;2023-11-21T05:36:08;-0.20;99.90
43185;DHT22;28803;52.308;19.096;2023-11-21T05:38:37;-0.20;99.90
43185;DHT22;28803;52.308;19.096;2023-11-21T05:41:04;-0.20;99.90
43185;DHT22;28803;52.308;19.096;2023-11-21T05:43:32;-0.30;99.90
43185;DHT22;28803;52.308;19.096;2023-11-21T05:46:03;-0.20;99.90
43185;DHT22;28803;52.308;19.096;2023-11-21T05:48:30;-0.30;99.90
43185;DHT22;28803;52.308;19.096;2023-11-21T05:50:58;-0.20;99.90
43185;DHT22;28803;52.308;19.096;2023-11-21T05:53:26;-0.30;99.90
43185;DHT22;28803;52.308;19.096;2023-11-21T05:55:53;-0.20;99.90
43185;DHT22;28803;52.308;19.096;2023-11-21T05:58:20;-0.20;99.90
43185;DHT22;28803;52.308;19.096;2023-11-21T06:00:48;-0.20;99.90
43185;DHT22;28803;52.308;19.096;2023-11-21T06:03:15;-0.20;99.90
43185;DHT22;28803;52.308;19.096;2023-11-21T06:05:44;-0.20;99.90
43185;DHT22;28803;52.308;19.096;2023-11-21T06:08:12;-0.20;99.90
43185;DHT22;28803;52.308;19.096;2023-11-21T06:10:39;-0.10;99.90
43185;DHT22;28803;52.308;19.096;2023-11-21T06:13:06;-0.10;99.90
43185;DHT22;28803;52.308;19.096;2023-11-21T06:15:34;-0.20;99.90
43185;DHT22;28803;52.308;19.096;2023-11-21T06:18:01;-0.20;99.90
43185;DHT22;28803;52.308;19.096;2023-11-21T06:20:29;-0.10;99.90
43185;DHT22;28803;52.308;19.096;2023-11-21T06:22:56;-0.20;99.90
43185;DHT22;28803;52.308;19.096;2023-11-21T06:25:24;-0.20;99.90
43185;DHT22;28803;52.308;19.096;2023-11-21T06:27:51;-0.20;99.90
43185;DHT22;28803;52.308;19.096;2023-11-21T06:30:21;-0.20;99.90
43185;DHT22;28803;52.308;19.096;2023-11-21T06:32:49;-0.30;99.90
43185;DHT22;28803;52.308;19.096;2023-11-21T06:35:18;-0.30;99.90
43185;DHT22;28803;52.308;19.096;2023-11-21T06:37:46;-0.30;99.90
43185;DHT22;28803;52.308;19.096;2023-11-21T06:40:18;-0.30;99.90
43185;DHT22;28803;52.308;19.096;2023-11-21T06:42:46;-0.30;99.90
43185;DHT22;28803;52.308;19.096;2023-11-21T06:45:15;-0.30;99.90
43185;DHT22;28803;52.308;19.096;2023-11-21T06:47:43;-0.30;99.90
43185;DHT22;28803;52.308;19.096;2023-11-21T06:50:11;-0.30;99.90
43185;DHT22;28803;52.308;19.096;2023-11-21T06:52:38;-0.30;99.90
43185;DHT22;28803;52.308;19.096;2023-11-21T06:55:07;-0.30;99.90
43185;DHT22;28803;52.308;19.096;2023-11-21T06:57:36;-0.30;99.90
43185;DHT22;28803;52.308;19.096;2023-11-21T07:00:04;-0.30;99.90
43185;DHT22;28803;52.308;19.096;2023-11-21T07:02:33;-0.30;99.90
43185;DHT22;28803;52.308;19.096;2023-11-21T07:05:01;-0.30;99.90
43185;DHT22;28803;52.308;19.096;2023-11-21T07:07:28;-0.30;99.90
43185;DHT22;28803;52.308;19.096;2023-11-21T07:09:56;-0.30;99.90
43185;DHT22;28803;52.308;19.096;2023-11-21T07:12:24;-0.30;99.90
43185;DHT22;28803;52.308;19.096;2023-11-21T07:14:53;-0.40;99.90
43185;DHT22;28803;52.308;19.096;2023-11-21T07:17:20;-0.40;99.90
43185;DHT22;28803;52.308;19.096;2023-11-21T07:19:50;-0.40;99.90
43185;DHT22;28803;52.308;19.096;2023-11-21T07:22:18;-0.40;99.90
43185;DHT22;28803;52.308;19.096;2023-11-21T07:24:49;-0.40;99.90
43185;DHT22;28803;52.308;19.096;2023-11-21T07:27:17;-0.40;99.90
43185;DHT22;28803;52.308;19.096;2023-11-21T07:29:45;-0.40;99.90
43185;DHT22;28803;52.308;19.096;2023-11-21T07:32:13;-0.40;99.90
43185;DHT22;28803;52.308;19.096;2023-11-21T07:34:42;-0.40;99.90
43185;DHT22;28803;52.308;19.096;2023-11-21T07:37:09;-0.40;99.90
43185;DHT22;28803;52.308;19.096;2023-11-21T07:39:37;-0.40;99.90
43185;DHT22;28803;52.308;19.096;2023-11-21T07:42:04;-0.40;99.90
43185;DHT22;28803;52.308;19.096;2023-11-21T07:44:32;-0.40;99.90
43185;DHT22;28803;52.308;19.096;2023-11-21T07:46:59;-0.40;99.90
43185;DHT22;28803;52.308;19.096;2023-11-21T07:49:27;-0.40;99.90
43185;DHT22;28803;52.308;19.096;2023-11-21T07:51:54;-0.40;99.90
43185;DHT22;28803;52.308;19.096;2023-11-21T07:54:22;-0.40;99.90
43185;DHT22;28803;52.308;19.096;2023-11-21T07:56:50;-0.50;99.90
43185;DHT22;28803;52.308;19.096;2023-11-21T07:59:17;-0.40;99.90
43185;DHT22;28803;52.308;19.096;2023-11-21T08:01:45;-0.50;99.90
43185;DHT22;28803;52.308;19.096;2023-11-21T08:04:13;-0.50;99.90
43185;DHT22;28803;52.308;19.096;2023-11-21T08:06:41;-0.50;99.90
43185;DHT22;28803;52.308;19.096;2023-11-21T08:09:09;-0.50;99.90
43185;DHT22;28803;52.308;19.096;2023-11-21T08:11:39;-0.50;99.90
43185;DHT22;28803;52.308;19.096;2023-11-21T08:14:07;-0.60;99.90
43185;DHT22;28803;52.308;19.096;2023-11-21T08:16:34;-0.50;99.90
43185;DHT22;28803;52.308;19.096;2023-11-21T08:19:03;-0.60;99.90
43185;DHT22;28803;52.308;19.096;2023-11-21T08:21:31;-0.50;99.90
43185;DHT22;28803;52.308;19.096;2023-11-21T08:23:58;-0.50;99.90
43185;DHT22;28803;52.308;19.096;2023-11-21T08:26:27;-0.50;99.90
43185;DHT22;28803;52.308;19.096;2023-11-21T08:28:55;-0.40;99.90
43185;DHT22;28803;52.308;19.096;2023-11-21T08:31:27;-0.40;99.90
43185;DHT22;28803;52.308;19.096;2023-11-21T08:33:55;-0.40;99.90
43185;DHT22;28803;52.308;19.096;2023-11-21T08:36:25;-0.40;99.90
43185;DHT22;28803;52.308;19.096;2023-11-21T08:38:53;-0.40;99.90
43185;DHT22;28803;52.308;19.096;2023-11-21T08:41:20;-0.50;99.90
43185;DHT22;28803;52.308;19.096;2023-11-21T08:43:51;-0.50;99.90
43185;DHT22;28803;52.308;19.096;2023-11-21T08:46:19;-0.50;99.90
43185;DHT22;28803;52.308;19.096;2023-11-21T08:48:48;-0.50;99.90
43185;DHT22;28803;52.308;19.096;2023-11-21T08:51:15;-0.50;99.90
43185;DHT22;28803;52.308;19.096;2023-11-21T08:53:43;-0.50;99.90
43185;DHT22;28803;52.308;19.096;2023-11-21T08:56:14;-0.50;99.90
43185;DHT22;28803;52.308;19.096;2023-11-21T08:58:41;-0.60;99.90
43185;DHT22;28803;52.308;19.096;2023-11-21T09:01:09;-0.60;99.90
43185;DHT22;28803;52.308;19.096;2023-11-21T09:03:37;-0.60;99.90
43185;DHT22;28803;52.308;19.096;2023-11-21T09:06:05;-0.60;99.90
43185;DHT22;28803;52.308;19.096;2023-11-21T09:08:33;-0.50;99.90
43185;DHT22;28803;52.308;19.096;2023-11-21T09:11:00;-0.60;99.90
43185;DHT22;28803;52.308;19.096;2023-11-21T09:13:28;-0.60;99.90
43185;DHT22;28803;52.308;19.096;2023-11-21T09:15:57;-0.50;99.90
43185;DHT22;28803;52.308;19.096;2023-11-21T09:18:25;-0.50;99.90
43185;DHT22;28803;52.308;19.096;2023-11-21T09:20:53;-0.50;99.90
43185;DHT22;28803;52.308;19.096;2023-11-21T09:23:24;-0.50;99.90
43185;DHT22;28803;52.308;19.096;2023-11-21T09:25:52;-0.60;99.90
43185;DHT22;28803;52.308;19.096;2023-11-21T09:28:24;-0.60;99.90
43185;DHT22;28803;52.308;19.096;2023-11-21T09:30:52;-0.60;99.90
43185;DHT22;28803;52.308;19.096;2023-11-21T09:33:20;-0.50;99.90
43185;DHT22;28803;52.308;19.096;2023-11-21T09:35:49;-0.60;99.90
43185;DHT22;28803;52.308;19.096;2023-11-21T09:38:20;-0.60;99.90
43185;DHT22;28803;52.308;19.096;2023-11-21T09:40:47;-0.60;99.90
43185;DHT22;28803;52.308;19.096;2023-11-21T09:43:17;-0.70;99.90
43185;DHT22;28803;52.308;19.096;2023-11-21T09:45:47;-0.70;99.90
43185;DHT22;28803;52.308;19.096;2023-11-21T09:48:20;-0.60;99.90
43185;DHT22;28803;52.308;19.096;2023-11-21T09:50:47;-0.60;99.90
43185;DHT22;28803;52.308;19.096;2023-11-21T09:53:22;-0.50;99.90
43185;DHT22;28803;52.308;19.096;2023-11-21T09:55:52;-0.50;99.90
43185;DHT22;28803;52.308;19.096;2023-11-21T09:58:21;-0.50;99.90
43185;DHT22;28803;52.308;19.096;2023-11-21T10:00:57;-0.50;99.90
43185;DHT22;28803;52.308;19.096;2023-11-21T10:03:26;-0.50;99.90
43185;DHT22;28803;52.308;19.096;2023-11-21T10:05:56;-0.50;99.90
43185;DHT22;28803;52.308;19.096;2023-11-21T10:08:28;-0.60;99.90
43185;DHT22;28803;52.308;19.096;2023-11-21T10:11:14;-0.50;99.90
43185;DHT22;28803;52.308;19.096;2023-11-21T10:13:44;-0.50;99.90
43185;DHT22;28803;52.308;19.096;2023-11-21T10:16:15;-0.50;99.90
43185;DHT22;28803;52.308;19.096;2023-11-21T10:18:52;-0.40;99.90
43185;DHT22;28803;52.308;19.096;2023-11-21T10:21:39;-0.30;99.90
43185;DHT22;28803;52.308;19.096;2023-11-21T10:24:08;-0.20;99.90
43185;DHT22;28803;52.308;19.096;2023-11-21T10:26:36;-0.30;99.90
43185;DHT22;28803;52.308;19.096;2023-11-21T10:29:19;-0.30;99.90
43185;DHT22;28803;52.308;19.096;2023-11-21T10:31:50;-0.50;99.90
43185;DHT22;28803;52.308;19.096;2023-11-21T10:34:20;-0.50;99.90
43185;DHT22;28803;52.308;19.096;2023-11-21T10:36:47;-0.50;99.90
43185;DHT22;28803;52.308;19.096;2023-11-21T10:39:20;-0.40;99.90
43185;DHT22;28803;52.308;19.096;2023-11-21T10:41:48;-0.40;99.90
43185;DHT22;28803;52.308;19.096;2023-11-21T10:44:17;-0.40;99.90
43185;DHT22;28803;52.308;19.096;2023-11-21T10:46:55;-0.40;99.90
43185;DHT22;28803;52.308;19.096;2023-11-21T10:49:28;-0.40;99.90
43185;DHT22;28803;52.308;19.096;2023-11-21T10:51:56;-0.40;99.90
43185;DHT22;28803;52.308;19.096;2023-11-21T10:54:24;-0.40;99.90
43185;DHT22;28803;52.308;19.096;2023-11-21T10:57:00;-0.40;99.90
43185;DHT22;28803;52.308;19.096;2023-11-21T10:59:30;-0.40;99.90
43185;DHT22;28803;52.308;19.096;2023-11-21T11:02:01;-0.50;99.90
43185;DHT22;28803;52.308;19.096;2023-11-21T11:04:32;-0.50;99.90
43185;DHT22;28803;52.308;19.096;2023-11-21T11:07:05;-0.50;99.90
43185;DHT22;28803;52.308;19.096;2023-11-21T11:09:40;-0.50;99.90
43185;DHT22;28803;52.308;19.096;2023-11-21T11:12:08;-0.50;99.90
43185;DHT22;28803;52.308;19.096;2023-11-21T11:14:41;-0.50;99.90
43185;DHT22;28803;52.308;19.096;2023-11-21T11:17:08;-0.50;99.90
43185;DHT22;28803;52.308;19.096;2023-11-21T11:19:38;-0.50;99.90
43185;DHT22;28803;52.308;19.096;2023-11-21T11:25:18;-0.50;99.90
43185;DHT22;28803;52.308;19.096;2023-11-21T11:27:58;-0.50;99.90
43185;DHT22;28803;52.308;19.096;2023-11-21T11:36:25;-0.50;99.90
43185;DHT22;28803;52.308;19.096;2023-11-21T11:38:53;-0.60;99.90
43185;DHT22;28803;52.308;19.096;2023-11-21T11:41:30;-0.50;99.90
43185;DHT22;28803;52.308;19.096;2023-11-21T11:44:00;-0.60;99.90
43185;DHT22;28803;52.308;19.096;2023-11-21T11:46:44;-0.50;99.90
43185;DHT22;28803;52.308;19.096;2023-11-21T11:49:27;-0.50;99.90
43185;DHT22;28803;52.308;19.096;2023-11-21T11:52:35;-0.50;99.90
43185;DHT22;28803;52.308;19.096;2023-11-21T11:55:03;-0.50;99.90
43185;DHT22;28803;52.308;19.096;2023-11-21T11:57:35;-0.50;99.90
43185;DHT22;28803;52.308;19.096;2023-11-21T12:00:17;-0.60;99.90
43185;DHT22;28803;52.308;19.096;2023-11-21T12:03:00;-0.50;99.90
43185;DHT22;28803;52.308;19.096;2023-11-21T12:05:32;-0.50;99.90
43185;DHT22;28803;52.308;19.096;2023-11-21T12:08:04;-0.50;99.90
43185;DHT22;28803;52.308;19.096;2023-11-21T12:10:33;-0.50;99.90
43185;DHT22;28803;52.308;19.096;2023-11-21T12:13:04;-0.40;99.90
43185;DHT22;28803;52.308;19.096;2023-11-21T12:15:35;-0.40;99.90
43185;DHT22;28803;52.308;19.096;2023-11-21T12:18:05;-0.40;99.90
43185;DHT22;28803;52.308;19.096;2023-11-21T12:20:33;-0.40;99.90
43185;DHT22;28803;52.308;19.096;2023-11-21T12:23:07;-0.50;99.90
43185;DHT22;28803;52.308;19.096;2023-11-21T12:25:37;-0.50;99.90
43185;DHT22;28803;52.308;19.096;2023-11-21T12:28:07;-0.50;99.90
43185;DHT22;28803;52.308;19.096;2023-11-21T12:30:37;-0.50;99.90
43185;DHT22;28803;52.308;19.096;2023-11-21T12:33:06;-0.40;99.90
43185;DHT22;28803;52.308;19.096;2023-11-21T12:35:37;-0.40;99.90
43185;DHT22;28803;52.308;19.096;2023-11-21T12:38:05;-0.50;99.90
43185;DHT22;28803;52.308;19.096;2023-11-21T12:40:33;-0.50;99.90
43185;DHT22;28803;52.308;19.096;2023-11-21T12:43:02;-0.50;99.90
43185;DHT22;28803;52.308;19.096;2023-11-21T12:45:32;-0.50;99.90
43185;DHT22;28803;52.308;19.096;2023-11-21T12:48:02;-0.50;99.90
43185;DHT22;28803;52.308;19.096;2023-11-21T12:50:36;-0.50;99.90
43185;DHT22;28803;52.308;19.096;2023-11-21T12:53:07;-0.50;99.90
43185;DHT22;28803;52.308;19.096;2023-11-21T12:55:39;-0.50;99.90
43185;DHT22;28803;52.308;19.096;2023-11-21T12:58:09;-0.60;99.90
43185;DHT22;28803;52.308;19.096;2023-11-21T13:00:43;-0.60;99.90
43185;DHT22;28803;52.308;19.096;2023-11-21T13:03:13;-0.50;99.90
43185;DHT22;28803;52.308;19.096;2023-11-21T13:05:47;-0.50;99.90
43185;DHT22;28803;52.308;19.096;2023-11-21T13:08:20;-0.50;99.90
43185;DHT22;28803;52.308;19.096;2023-11-21T13:10:52;-0.60;99.90
43185;DHT22;28803;52.308;19.096;2023-11-21T13:13:23;-0.60;99.90
43185;DHT22;28803;52.308;19.096;2023-11-21T13:15:54;-0.60;99.90
43185;DHT22;28803;52.308;19.096;2023-11-21T13:18:25;-0.60;99.90
43185;DHT22;28803;52.308;19.096;2023-11-21T13:20:55;-0.60;99.90
43185;DHT22;28803;52.308;19.096;2023-11-21T13:23:26;-0.60;99.90
43185;DHT22;28803;52.308;19.096;2023-11-21T13:25:54;-0.60;99.90
43185;DHT22;28803;52.308;19.096;2023-11-21T13:28:32;-0.60;99.90
43185;DHT22;28803;52.308;19.096;2023-11-21T13:31:01;-0.60;99.90
43185;DHT22;28803;52.308;19.096;2023-11-21T13:33:53;-0.70;99.90
43185;DHT22;28803;52.308;19.096;2023-11-21T13:36:25;-0.70;99.90
43185;DHT22;28803;52.308;19.096;2023-11-21T13:38:57;-0.70;99.90
43185;DHT22;28803;52.308;19.096;2023-11-21T13:41:25;-0.70;99.90
43185;DHT22;28803;52.308;19.096;2023-11-21T13:43:59;-0.80;99.90
43185;DHT22;28803;52.308;19.096;2023-11-21T13:46:39;-0.70;99.90
43185;DHT22;28803;52.308;19.096;2023-11-21T13:49:06;-0.70;99.90
43185;DHT22;28803;52.308;19.096;2023-11-21T13:51:37;-0.60;99.90
43185;DHT22;28803;52.308;19.096;2023-11-21T13:54:11;-0.60;99.90
43185;DHT22;28803;52.308;19.096;2023-11-21T13:59:08;-0.70;99.90
43185;DHT22;28803;52.308;19.096;2023-11-21T14:01:49;-0.70;99.90
43185;DHT22;28803;52.308;19.096;2023-11-21T14:04:21;-0.80;99.90
43185;DHT22;28803;52.308;19.096;2023-11-21T14:07:11;-0.80;99.90
43185;DHT22;28803;52.308;19.096;2023-11-21T14:09:54;-0.80;99.90
43185;DHT22;28803;52.308;19.096;2023-11-21T14:12:22;-0.80;99.90
43185;DHT22;28803;52.308;19.096;2023-11-21T14:14:49;-0.80;99.90
43185;DHT22;28803;52.308;19.096;2023-11-21T14:17:17;-0.80;99.90
43185;DHT22;28803;52.308;19.096;2023-11-21T14:19:45;-0.80;99.90
43185;DHT22;28803;52.308;19.096;2023-11-21T14:22:12;-0.80;99.90
43185;DHT22;28803;52.308;19.096;2023-11-21T14:24:40;-0.80;99.90
43185;DHT22;28803;52.308;19.096;2023-11-21T14:27:13;-0.90;99.90
43185;DHT22;28803;52.308;19.096;2023-11-21T14:29:42;-0.90;99.90
43185;DHT22;28803;52.308;19.096;2023-11-21T14:32:12;-0.90;99.90
43185;DHT22;28803;52.308;19.096;2023-11-21T14:34:40;-0.90;99.90
43185;DHT22;28803;52.308;19.096;2023-11-21T14:37:10;-0.90;99.90
43185;DHT22;28803;52.308;19.096;2023-11-21T14:39:41;-0.80;99.90
43185;DHT22;28803;52.308;19.096;2023-11-21T14:42:12;-0.90;99.90
43185;DHT22;28803;52.308;19.096;2023-11-21T14:44:42;-0.90;99.90
43185;DHT22;28803;52.308;19.096;2023-11-21T14:47:09;-0.80;99.90
43185;DHT22;28803;52.308;19.096;2023-11-21T14:49:44;-0.80;99.90
43185;DHT22;28803;52.308;19.096;2023-11-21T14:52:22;-0.80;99.90
43185;DHT22;28803;52.308;19.096;2023-11-21T14:55:03;-0.80;99.90
43185;DHT22;28803;52.308;19.096;2023-11-21T14:57:50;-0.90;99.90
43185;DHT22;28803;52.308;19.096;2023-11-21T15:00:19;-0.90;99.90
43185;DHT22;28803;52.308;19.096;2023-11-21T15:03:02;-0.90;99.90
43185;DHT22;28803;52.308;19.096;2023-11-21T15:08:02;-0.90;99.90
43185;DHT22;28803;52.308;19.096;2023-11-21T15:10:48;-0.90;99.90
43185;DHT22;28803;52.308;19.096;2023-11-21T15:13:21;-0.90;99.90
43185;DHT22;28803;52.308;19.096;2023-11-21T15:15:51;-0.90;99.90
43185;DHT22;28803;52.308;19.096;2023-11-21T15:18:21;-0.90;99.90
43185;DHT22;28803;52.308;19.096;2023-11-21T15:20:50;-0.90;99.90
43185;DHT22;28803;52.308;19.096;2023-11-21T15:23:17;-1.00;99.90
43185;DHT22;28803;52.308;19.096;2023-11-21T15:25:46;-0.90;99.90
43185;DHT22;28803;52.308;19.096;2023-11-21T15:28:14;-1.00;99.90
43185;DHT22;28803;52.308;19.096;2023-11-21T15:30:41;-0.90;99.90
43185;DHT22;28803;52.308;19.096;2023-11-21T15:33:09;-0.90;99.90
43185;DHT22;28803;52.308;19.096;2023-11-21T15:38:06;-0.90;99.90
43185;DHT22;28803;52.308;19.096;2023-11-21T15:40:35;-1.00;99.90
43185;DHT22;28803;52.308;19.096;2023-11-21T15:43:02;-1.00;99.90
43185;DHT22;28803;52.308;19.096;2023-11-21T15:45:34;-1.00;99.90
43185;DHT22;28803;52.308;19.096;2023-11-21T15:48:01;-1.00;99.90
43185;DHT22;28803;52.308;19.096;2023-11-21T15:50:31;-1.00;99.90
43185;DHT22;28803;52.308;19.096;2023-11-21T15:52:59;-1.00;99.90